Time;durP1;ratioP1;P1;durP2;ratioP2;P2;SDS_P1;SDS_P2;PMS_P1;PMS_P2;Temp;Humidity;BMP_temperature;BMP_pressure;BME280_temperature;BME280_humidity;BME280_pressure;Samples;Min_cycle;Max_cycle;Signal;HPM_P1;HPM_P2
2024/03/13 00:02:22;;;;;;;6.63;5.72;;;;;;;7.33;100.00;98343.34;15291196;19;20526;-75
2024/03/13 00:07:47;;;;;;;7.07;5.90;;;;;;;7.26;100.00;98343.06;15284738;19;20074;-76
2024/03/13 00:13:12;;;;;;;6.45;5.72;;;;;;;7.14;100.00;98349.56;15282795;19;20017;-75
2024/03/13 00:18:41;;;;;;;6.22;5.63;;;;;;;7.02;100.00;98344.34;15289534;19;20018;-75
2024/03/13 00:24:05;;;;;;;6.60;5.90;;;;;;;6.93;100.00;98351.41;15296907;19;20736;-74
2024/03/13 00:29:30;;;;;;;7.03;5.70;;;;;;;6.89;100.00;98346.44;15032998;19;5002223;-74
2024/03/13 00:34:58;;;;;;;7.38;5.85;;;;;;;6.89;100.00;98343.75;15286566;19;20021;-73
2024/03/13 00:40:23;;;;;;;6.70;5.88;;;;;;;6.83;100.00;98342.47;15294010;19;20019;-75
2024/03/13 00:45:48;;;;;;;7.55;5.80;;;;;;;6.80;100.00;98340.09;15291222;19;20021;-75
2024/03/13 00:51:16;;;;;;;7.05;6.00;;;;;;;6.80;100.00;98342.78;15293006;19;20057;-75
2024/03/13 00:56:45;;;;;;;7.00;5.90;;;;;;;6.82;100.00;98337.28;15284909;19;20021;-74
2024/03/13 01:02:10;;;;;;;6.43;5.70;;;;;;;6.86;100.00;98344.06;15283970;19;20014;-74
2024/03/13 01:07:37;;;;;;;6.00;5.40;;;;;;;6.87;100.00;98338.56;15284148;19;20015;-74
2024/03/13 01:13:02;;;;;;;5.47;4.57;;;;;;;6.90;100.00;98338.28;15285051;19;20021;-74
2024/03/13 01:18:26;;;;;;;5.70;5.10;;;;;;;6.92;100.00;98338.13;15283756;19;20246;-74
2024/03/13 01:23:54;;;;;;;4.85;4.35;;;;;;;6.95;100.00;98327.16;15298698;19;20019;-74
2024/03/13 01:29:18;;;;;;;6.15;4.82;;;;;;;6.96;100.00;98320.81;15298024;19;20028;-74
2024/03/13 01:34:43;;;;;;;5.90;4.97;;;;;;;6.98;100.00;98324.19;15295994;19;20014;-74
2024/03/13 01:40:23;;;;;;;5.13;4.63;;;;;;;7.00;100.00;98319.53;15306142;19;20017;-75
2024/03/13 01:58:10;;;;;;;5.80;4.93;;;;;;;6.94;100.00;98323.59;15295364;19;20014;-74
2024/03/13 02:03:35;;;;;;;6.20;5.23;;;;;;;6.93;100.00;98323.75;15297196;19;20081;-74
2024/03/13 02:09:00;;;;;;;7.95;5.30;;;;;;;6.93;100.00;98326.44;15297139;19;20021;-73
2024/03/13 02:14:28;;;;;;;8.07;5.53;;;;;;;6.88;100.00;98315.31;15296315;19;20031;-74
2024/03/13 02:19:57;;;;;;;7.13;6.22;;;;;;;6.83;100.00;98320.22;15300118;19;20512;-73
2024/03/13 02:25:25;;;;;;;8.68;6.97;;;;;;;6.81;100.00;98320.38;15291115;19;20015;-74
2024/03/13 02:30:50;;;;;;;7.35;6.38;;;;;;;6.81;100.00;98324.88;15302983;19;20038;-74
2024/03/13 02:36:16;;;;;;;7.53;6.57;;;;;;;6.83;100.00;98323.75;15293262;19;20035;-73
2024/03/13 02:41:43;;;;;;;9.13;7.30;;;;;;;6.86;100.00;98328.00;15302287;19;20842;-74
2024/03/13 02:47:08;;;;;;;9.63;7.75;;;;;;;6.89;100.00;98316.97;15301582;19;20086;-75
2024/03/13 02:52:32;;;;;;;9.68;7.43;;;;;;;6.88;100.00;98312.63;15293284;19;20039;-75
2024/03/13 02:58:01;;;;;;;9.00;7.30;;;;;;;6.85;100.00;98312.91;15288896;19;20029;-75
2024/03/13 03:03:28;;;;;;;9.68;8.05;;;;;;;6.80;100.00;98321.38;15291192;19;20014;-53
2024/03/13 03:08:53;;;;;;;10.25;8.05;;;;;;;6.76;100.00;98319.94;15291988;19;20011;-53
2024/03/13 03:14:20;;;;;;;9.18;7.72;;;;;;;6.76;100.00;98319.94;15299437;19;20014;-53
2024/03/13 03:19:45;;;;;;;10.02;8.07;;;;;;;6.73;100.00;98320.22;15305861;19;20042;-56
2024/03/13 03:25:10;;;;;;;11.55;8.05;;;;;;;6.67;100.00;98323.47;15325012;19;20010;-57
2024/03/13 03:30:41;;;;;;;9.80;8.13;;;;;;;6.54;100.00;98311.19;15289153;19;20515;-56
2024/03/13 03:36:08;;;;;;;9.13;7.55;;;;;;;6.39;100.00;98316.09;15290207;19;20014;-58
2024/03/13 03:41:33;;;;;;;10.00;8.02;;;;;;;6.25;100.00;98321.81;15295400;19;20542;-57
2024/03/13 03:47:01;;;;;;;10.38;8.40;;;;;;;6.02;100.00;98322.03;15289244;19;20021;-57
2024/03/13 03:52:26;;;;;;;10.27;8.25;;;;;;;5.88;100.00;98325.03;15292965;19;20961;-56
2024/03/13 03:57:50;;;;;;;9.75;8.15;;;;;;;5.80;100.00;98329.22;15294590;19;20363;-53
2024/03/13 04:03:18;;;;;;;9.23;7.88;;;;;;;5.78;100.00;98317.81;15284281;19;20020;-57
2024/03/13 04:08:43;;;;;;;10.40;8.45;;;;;;;5.73;100.00;98316.53;15288529;19;20518;-55
2024/03/13 04:14:09;;;;;;;11.80;9.07;;;;;;;5.67;100.00;98320.56;15287289;19;20026;-54
2024/03/13 04:19:39;;;;;;;11.27;9.35;;;;;;;5.59;100.00;98320.34;15290666;19;20036;-57
2024/03/13 04:25:04;;;;;;;12.38;9.80;;;;;;;5.47;100.00;98328.44;15283715;19;20014;-59
2024/03/13 04:30:29;;;;;;;12.93;10.23;;;;;;;5.35;100.00;98317.00;15289971;19;20025;-55
2024/03/13 04:35:59;;;;;;;13.57;10.88;;;;;;;5.24;100.00;98317.06;15283745;19;20050;-60
2024/03/13 04:41:24;;;;;;;12.52;10.43;;;;;;;5.13;100.00;98315.28;15291124;19;20023;-55
2024/03/13 04:46:49;;;;;;;14.73;10.45;;;;;;;4.99;100.00;98312.97;15281203;19;20018;-59
2024/03/13 04:52:16;;;;;;;14.27;11.20;;;;;;;4.85;100.00;98317.63;15286338;19;20078;-59
2024/03/13 04:57:41;;;;;;;14.93;11.18;;;;;;;4.72;100.00;98306.25;15282929;19;20026;-58
2024/03/13 05:03:06;;;;;;;13.35;10.98;;;;;;;4.58;100.00;98294.91;15283736;19;20010;-57
2024/03/13 05:08:34;;;;;;;16.70;13.30;;;;;;;4.38;100.00;98296.53;15281979;19;20467;-58
2024/03/13 05:13:59;;;;;;;18.83;13.77;;;;;;;4.32;100.00;98311.22;15289363;19;20018;-58
2024/03/13 05:19:24;;;;;;;20.30;14.77;;;;;;;4.26;100.00;98310.88;15284141;19;20111;-59
2024/03/13 05:24:51;;;;;;;22.85;16.00;;;;;;;4.21;100.00;98316.56;15278225;19;20022;-56
2024/03/13 05:30:17;;;;;;;21.45;16.58;;;;;;;4.12;100.00;98318.16;15281643;19;20006;-56
2024/03/13 05:35:41;;;;;;;24.70;16.90;;;;;;;4.08;100.00;98335.38;15283160;19;20031;-57
2024/03/13 05:41:09;;;;;;;22.52;16.65;;;;;;;4.00;100.00;98349.31;15284617;19;20015;-59
2024/03/13 05:46:35;;;;;;;23.77;16.48;;;;;;;3.94;100.00;98359.63;15285553;19;20043;-61
2024/03/13 05:52:01;;;;;;;22.75;16.55;;;;;;;3.84;100.00;98364.81;15284514;19;20021;-59
2024/03/13 05:57:29;;;;;;;21.77;16.08;;;;;;;3.77;100.00;98367.09;15282067;19;20026;-59
2024/03/13 06:02:54;;;;;;;26.95;17.98;;;;;;;3.75;100.00;98365.53;15285503;19;20015;-58
2024/03/13 06:08:19;;;;;;;23.60;17.30;;;;;;;3.75;100.00;98374.38;15293718;19;20029;-58
2024/03/13 06:13:47;;;;;;;27.65;18.45;;;;;;;3.73;100.00;98375.47;15296486;19;20026;-57
2024/03/13 06:19:12;;;;;;;26.02;17.83;;;;;;;3.74;100.00;98385.16;15299392;19;20070;-56
2024/03/13 06:24:36;;;;;;;26.80;18.77;;;;;;;3.76;100.00;98378.75;15301894;19;20022;-58
2024/03/13 06:30:05;;;;;;;27.27;19.23;;;;;;;3.78;100.00;98394.63;15297960;19;20484;-57
2024/03/13 06:35:30;;;;;;;27.65;19.50;;;;;;;3.83;100.00;98397.75;15046427;19;5002530;-59
2024/03/13 06:40:56;;;;;;;28.23;19.02;;;;;;;3.89;100.00;98405.28;15296272;19;20018;-58
2024/03/13 06:46:24;;;;;;;24.35;18.38;;;;;;;3.97;100.00;98404.69;15294404;19;20353;-58
2024/03/13 06:51:49;;;;;;;26.60;18.48;;;;;;;4.06;100.00;98400.47;15287901;19;20021;-58
2024/03/13 06:57:14;;;;;;;28.58;18.67;;;;;;;4.13;100.00;98407.00;15298626;19;20018;-54
2024/03/13 07:02:41;;;;;;;26.42;19.20;;;;;;;4.23;100.00;98404.47;15300298;19;20029;-56
2024/03/13 07:08:06;;;;;;;26.05;18.67;;;;;;;4.34;100.00;98412.47;15289623;19;20022;-58
2024/03/13 07:13:31;;;;;;;24.73;18.08;;;;;;;4.47;100.00;98412.31;15290797;19;20035;-58
2024/03/13 07:18:59;;;;;;;23.63;16.58;;;;;;;4.56;100.00;98408.91;15285121;19;20037;-56
2024/03/13 07:24:25;;;;;;;26.67;17.98;;;;;;;4.68;100.00;98411.56;15290311;19;20042;-57
2024/03/13 07:29:50;;;;;;;24.63;17.60;;;;;;;4.76;100.00;98420.66;15290991;19;20022;-58
2024/03/13 07:35:18;;;;;;;24.67;18.33;;;;;;;4.92;100.00;98425.59;15296435;19;20022;-45
2024/03/13 07:40:43;;;;;;;23.45;17.83;;;;;;;5.15;100.00;98428.19;15293718;19;20078;-52
2024/03/13 07:46:09;;;;;;;25.25;17.65;;;;;;;5.38;100.00;98431.63;15293318;19;20021;-51
2024/03/13 07:51:38;;;;;;;21.95;15.82;;;;;;;5.55;100.00;98421.34;15289113;19;20098;-63
2024/03/13 07:57:04;;;;;;;22.85;16.55;;;;;;;5.67;100.00;98419.47;15294632;19;20253;-63
2024/03/13 08:02:29;;;;;;;22.58;16.50;;;;;;;5.82;100.00;98406.59;15294239;19;20026;-61
2024/03/13 08:08:04;;;;;;;20.25;14.77;;;;;;;6.04;100.00;98399.44;15291946;19;20025;-63
2024/03/13 08:13:42;;;;;;;19.23;14.43;;;;;;;6.31;100.00;98390.81;15288463;19;20586;-59
2024/03/13 08:19:22;;;;;;;17.48;13.23;;;;;;;6.60;100.00;98395.44;15288433;19;20022;-53
2024/03/13 08:25:16;;;;;;;14.05;10.98;;;;;;;6.91;100.00;98398.03;15289156;19;20542;-61
2024/03/13 08:30:56;;;;;;;14.70;11.00;;;;;;;7.14;100.00;98392.41;15289160;19;20019;-59
2024/03/13 08:36:34;;;;;;;12.98;10.77;;;;;;;7.34;100.00;98394.13;15288974;19;20025;-55
2024/03/13 08:42:16;;;;;;;13.15;10.52;;;;;;;7.54;100.00;98396.78;15292746;19;20471;-61
2024/03/13 08:47:55;;;;;;;12.47;9.77;;;;;;;7.82;100.00;98405.78;15285509;19;20051;-59
2024/03/13 08:53:34;;;;;;;10.93;8.93;;;;;;;7.97;100.00;98408.03;15282030;19;20026;-56
2024/03/13 08:59:16;;;;;;;8.18;7.30;;;;;;;8.16;100.00;98410.63;15284194;19;20972;-58
2024/03/13 09:05:03;;;;;;;7.25;6.43;;;;;;;8.42;100.00;98409.97;15286123;19;20546;-60
2024/03/13 09:10:41;;;;;;;6.85;5.53;;;;;;;8.63;100.00;98411.59;15281611;19;20040;-59
2024/03/13 09:16:13;;;;;;;5.47;4.60;;;;;;;8.78;100.00;98409.25;15282824;19;20018;-58
2024/03/13 09:21:31;;;;;;;5.13;3.40;;;;;;;9.04;100.00;98419.28;15289557;19;20098;-56
2024/03/13 09:26:56;;;;;;;4.78;3.50;;;;;;;9.10;100.00;98424.06;15283901;19;20027;-59
2024/03/13 09:32:24;;;;;;;3.83;3.20;;;;;;;9.18;100.00;98417.91;15282119;19;20634;-56
2024/03/13 09:37:48;;;;;;;5.03;4.28;;;;;;;9.29;100.00;98409.63;15281594;19;20018;-57
2024/03/13 09:43:17;;;;;;;4.10;3.63;;;;;;;9.43;100.00;98402.88;15293073;19;20082;-57
2024/03/13 09:48:45;;;;;;;4.10;3.70;;;;;;;9.36;100.00;98402.66;15298388;19;20022;-57
2024/03/13 09:54:14;;;;;;;3.00;2.70;;;;;;;9.50;100.00;98421.94;15296609;19;20498;-57
2024/03/13 09:59:41;;;;;;;3.05;2.75;;;;;;;9.63;100.00;98413.47;15294915;19;20022;-56
2024/03/13 10:05:11;;;;;;;2.85;2.55;;;;;;;9.87;100.00;98420.91;15295191;19;20022;-56
2024/03/13 10:10:38;;;;;;;3.70;2.20;;;;;;;10.03;100.00;98421.00;15297515;19;20025;-55
2024/03/13 10:16:06;;;;;;;2.42;2.10;;;;;;;10.12;100.00;98419.22;15294680;19;20020;-56
2024/03/13 10:21:33;;;;;;;2.28;2.08;;;;;;;10.08;100.00;98427.75;15293594;19;20007;-58
2024/03/13 10:27:02;;;;;;;2.42;2.10;;;;;;;10.17;100.00;98432.19;15302167;19;20022;-60
2024/03/13 10:32:28;;;;;;;1.70;1.60;;;;;;;10.09;100.00;98427.59;15293485;19;20019;-54
2024/03/13 10:37:56;;;;;;;1.75;1.65;;;;;;;10.01;100.00;98438.31;15294132;19;20102;-54
2024/03/13 10:43:22;;;;;;;1.63;1.52;;;;;;;9.95;100.00;98431.72;15292750;19;20050;-56
2024/03/13 10:48:47;;;;;;;1.45;1.35;;;;;;;10.01;100.00;98431.06;15295182;19;20035;-57
2024/03/13 10:54:15;;;;;;;1.70;1.60;;;;;;;10.11;100.00;98428.28;15294546;19;20014;-63
2024/03/13 10:59:41;;;;;;;1.63;1.52;;;;;;;10.18;100.00;98423.94;15295136;19;20410;-62
2024/03/13 11:05:11;;;;;;;1.63;1.52;;;;;;;10.14;100.00;98409.13;15295077;19;20090;-62
2024/03/13 11:10:38;;;;;;;1.45;1.35;;;;;;;10.09;100.00;98394.47;15295783;19;20018;-62
2024/03/13 11:16:25;;;;;;;1.70;1.60;;;;;;;10.06;100.00;98397.47;15290872;19;20019;-60
2024/03/13 11:22:05;;;;;;;1.50;1.40;;;;;;;10.01;100.00;98396.06;15286934;19;20082;-63
2024/03/13 11:27:32;;;;;;;2.97;1.60;;;;;;;10.10;100.00;98404.22;15293973;19;20478;-63
2024/03/13 11:32:58;;;;;;;1.88;1.60;;;;;;;10.16;100.00;98407.13;15278888;19;20022;-63
2024/03/13 11:38:25;;;;;;;1.60;1.50;;;;;;;10.22;100.00;98383.25;15290313;19;20018;-63
2024/03/13 11:43:54;;;;;;;2.03;1.77;;;;;;;10.37;100.00;98368.19;15285671;19;20033;-62
2024/03/13 11:49:19;;;;;;;1.98;1.77;;;;;;;10.72;100.00;98371.72;15291227;19;20829;-62
2024/03/13 11:54:46;;;;;;;2.42;1.60;;;;;;;10.91;100.00;98359.81;15291732;19;20018;-62
2024/03/13 12:00:23;;;;;;;1.40;1.30;;;;;;;10.97;100.00;98347.53;15291657;19;20511;-61
2024/03/13 12:05:49;;;;;;;1.40;1.30;;;;;;;11.30;100.00;98344.00;15279400;19;20022;-61
2024/03/13 12:11:19;;;;;;;1.55;1.45;;;;;;;11.28;100.00;98349.59;15295185;19;20018;-60
2024/03/13 12:16:49;;;;;;;2.30;1.47;;;;;;;11.30;100.00;98336.78;15286854;19;20039;-61
2024/03/13 12:22:15;;;;;;;1.55;1.45;;;;;;;11.45;100.00;98336.13;15284936;19;20014;-62
2024/03/13 12:27:41;;;;;;;1.50;1.40;;;;;;;11.53;100.00;98338.78;15292021;19;20027;-62
2024/03/13 12:33:11;;;;;;;1.52;1.42;;;;;;;11.57;100.00;98332.88;15283050;19;20033;-60
2024/03/13 12:38:44;;;;;;;1.40;1.30;;;;;;;11.65;100.00;98334.75;15282980;19;20432;-62
2024/03/13 12:44:10;;;;;;;1.48;1.38;;;;;;;11.64;100.00;98338.44;15283235;19;20273;-61
2024/03/13 12:49:40;;;;;;;1.90;1.58;;;;;;;11.63;100.00;98342.16;15289590;19;20495;-60
2024/03/13 12:55:07;;;;;;;1.88;1.65;;;;;;;11.72;100.00;98324.94;15287065;19;20010;-62
2024/03/13 13:00:36;;;;;;;1.70;1.60;;;;;;;11.90;100.00;98332.00;15289250;19;20035;-60
2024/03/13 13:06:04;;;;;;;1.67;1.52;;;;;;;12.28;100.00;98317.91;15283996;19;20037;-61
2024/03/13 13:11:30;;;;;;;2.05;1.30;;;;;;;12.41;100.00;98322.72;15280201;19;20023;-61
2024/03/13 13:16:55;;;;;;;1.70;1.60;;;;;;;12.52;100.00;98314.28;15292091;19;20081;-62
2024/03/13 13:22:23;;;;;;;2.45;1.52;;;;;;;12.76;100.00;98309.72;15299939;19;20025;-62
2024/03/13 13:27:50;;;;;;;1.63;1.50;;;;;;;12.92;100.00;98304.22;15305020;19;20081;-61
2024/03/13 13:33:17;;;;;;;2.15;1.63;;;;;;;13.08;100.00;98308.66;15292712;19;20014;-61
2024/03/13 13:38:44;;;;;;;2.05;1.40;;;;;;;13.14;100.00;98296.28;15299642;19;20098;-60
2024/03/13 13:44:09;;;;;;;1.40;1.30;;;;;;;13.31;100.00;98290.75;15298701;19;20029;-62
2024/03/13 13:49:35;;;;;;;1.60;1.50;;;;;;;13.61;100.00;98290.84;15300352;19;20093;-60
2024/03/13 13:55:03;;;;;;;1.60;1.50;;;;;;;13.71;100.00;98280.59;15300508;19;20027;-60
2024/03/13 14:00:28;;;;;;;1.45;1.35;;;;;;;13.89;100.00;98272.09;15296394;19;20357;-59
2024/03/13 14:06:00;;;;;;;1.60;1.50;;;;;;;14.01;100.00;98269.78;15293706;19;20022;-60
2024/03/13 14:11:29;;;;;;;2.20;1.70;;;;;;;14.22;100.00;98265.47;15298850;19;20018;-60
2024/03/13 14:16:53;;;;;;;1.50;1.40;;;;;;;14.17;100.00;98264.16;15037117;19;5002231;-60
2024/03/13 14:22:17;;;;;;;1.70;1.60;;;;;;;13.74;100.00;98269.38;15298269;19;20018;-57
2024/03/13 14:27:46;;;;;;;1.52;1.42;;;;;;;13.43;100.00;98256.84;15297931;19;20701;-58
2024/03/13 14:33:11;;;;;;;1.80;1.50;;;;;;;13.20;100.00;98268.53;15298822;19;20015;-55
2024/03/13 14:38:35;;;;;;;2.15;1.30;;;;;;;13.25;100.00;98266.09;15293618;19;20406;-60
2024/03/13 14:44:03;;;;;;;1.42;1.30;;;;;;;13.24;100.00;98264.41;15301813;19;20392;-59
2024/03/13 14:49:28;;;;;;;1.77;1.65;;;;;;;13.12;100.00;98262.34;15034164;19;5002513;-59
2024/03/13 14:54:59;;;;;;;1.52;1.42;;;;;;;12.89;100.00;98272.13;15293863;19;20024;-62
2024/03/13 15:00:26;;;;;;;1.70;1.50;;;;;;;12.57;100.00;98262.38;15295794;19;20010;-61
2024/03/13 15:05:59;;;;;;;1.55;1.45;;;;;;;12.35;100.00;98275.66;15244500;19;20014;-61
2024/03/13 15:11:25;;;;;;;2.55;1.30;;;;;;;12.29;100.00;98260.16;15291437;19;20098;-61
2024/03/13 15:16:53;;;;;;;1.65;1.55;;;;;;;12.19;100.00;98263.06;15296444;19;20010;-63
2024/03/13 15:22:18;;;;;;;3.60;1.60;;;;;;;12.11;100.00;98266.63;15288598;19;20014;-63
2024/03/13 15:27:42;;;;;;;2.83;1.38;;;;;;;12.06;100.00;98271.75;15287577;19;20019;-62
2024/03/13 15:33:11;;;;;;;3.03;1.58;;;;;;;11.99;100.00;98271.59;15290956;19;20345;-63
2024/03/13 15:38:36;;;;;;;1.88;1.60;;;;;;;11.94;100.00;98273.09;15292386;19;20018;-61
2024/03/13 15:44:01;;;;;;;2.22;1.52;;;;;;;11.84;100.00;98268.75;15295072;19;20038;-61
2024/03/13 15:49:28;;;;;;;1.38;1.27;;;;;;;11.72;100.00;98276.34;15288929;19;20014;-62
2024/03/13 15:54:54;;;;;;;1.70;1.52;;;;;;;11.67;100.00;98280.59;15291812;19;20024;-61
2024/03/13 16:00:22;;;;;;;1.50;1.40;;;;;;;11.60;100.00;98280.44;15291498;19;20021;-63
2024/03/13 16:05:50;;;;;;;1.95;1.38;;;;;;;11.51;100.00;98279.63;15295344;19;20023;-63
2024/03/13 16:11:15;;;;;;;1.60;1.40;;;;;;;11.44;100.00;98280.47;15293840;19;20021;-63
2024/03/13 16:16:41;;;;;;;1.63;1.40;;;;;;;11.40;100.00;98278.09;15265479;19;20029;-62
2024/03/13 16:22:09;;;;;;;3.08;1.80;;;;;;;11.43;100.00;98271.53;15295646;19;20019;-63
2024/03/13 16:27:35;;;;;;;2.13;1.67;;;;;;;11.41;100.00;98268.16;15289438;19;20022;-63
2024/03/13 16:33:00;;;;;;;1.40;1.30;;;;;;;11.34;100.00;98276.09;15291501;19;20493;-63
2024/03/13 16:38:28;;;;;;;1.60;1.50;;;;;;;11.28;100.00;98284.03;15291763;19;20015;-64
2024/03/13 16:43:54;;;;;;;1.60;1.35;;;;;;;11.21;100.00;98292.78;15294231;19;20015;-62
2024/03/13 16:49:19;;;;;;;1.30;1.20;;;;;;;11.14;100.00;98283.69;15288393;19;20090;-62
2024/03/13 16:54:46;;;;;;;2.55;1.50;;;;;;;11.08;100.00;98285.19;15287112;19;20077;-62
2024/03/13 17:00:14;;;;;;;1.40;1.30;;;;;;;11.02;100.00;98285.84;15032626;19;5001004;-62
2024/03/13 17:05:45;;;;;;;1.55;1.45;;;;;;;11.00;100.00;98289.75;15281351;19;20022;-61
2024/03/13 17:11:19;;;;;;;1.48;1.38;;;;;;;10.92;100.00;98285.19;15292734;19;20025;-62
2024/03/13 17:16:45;;;;;;;1.65;1.33;;;;;;;10.89;100.00;98293.59;15287631;19;20029;-63
2024/03/13 17:22:11;;;;;;;1.70;1.60;;;;;;;10.87;100.00;98295.63;15291210;19;20099;-62
2024/03/13 17:27:39;;;;;;;1.30;1.20;;;;;;;10.81;100.00;98296.28;15275384;19;20029;-63
2024/03/13 17:33:05;;;;;;;1.40;1.10;;;;;;;10.74;100.00;98305.03;15281192;19;20025;-61
2024/03/13 17:38:30;;;;;;;1.45;0.80;;;;;;;10.72;100.00;98312.44;15285380;19;20033;-63
2024/03/13 17:44:00;;;;;;;1.17;1.08;;;;;;;10.67;100.00;98314.78;15288830;19;20045;-62
2024/03/13 17:49:25;;;;;;;1.50;1.40;;;;;;;10.64;100.00;98312.44;15287255;19;20035;-60
2024/03/13 17:54:51;;;;;;;2.40;1.25;;;;;;;10.59;100.00;98317.47;15286669;19;20037;-63
2024/03/13 18:00:21;;;;;;;1.60;1.30;;;;;;;10.56;100.00;98323.16;15279712;19;20375;-61
2024/03/13 18:05:46;;;;;;;2.05;1.23;;;;;;;10.47;100.00;98325.84;15301864;19;20018;-62
2024/03/13 18:11:12;;;;;;;1.67;1.40;;;;;;;10.37;100.00;98325.09;15303780;19;20085;-63
2024/03/13 18:16:39;;;;;;;1.40;1.30;;;;;;;10.27;100.00;98327.09;15305828;19;20101;-64
2024/03/13 18:22:05;;;;;;;1.70;1.23;;;;;;;10.30;100.00;98337.50;15302591;19;20014;-64
2024/03/13 18:27:30;;;;;;;1.27;1.17;;;;;;;10.31;100.00;98336.50;15292467;19;20345;-64
2024/03/13 18:32:59;;;;;;;2.38;1.60;;;;;;;10.31;100.00;98339.19;15292124;19;20021;-63
2024/03/13 18:38:24;;;;;;;1.67;1.38;;;;;;;10.27;100.00;98332.47;15291752;19;20363;-62
2024/03/13 18:43:48;;;;;;;1.55;1.45;;;;;;;10.27;100.00;98341.38;15293861;19;20038;-62
2024/03/13 18:49:16;;;;;;;2.60;2.40;;;;;;;10.28;100.00;98347.63;15295429;19;20021;-62
2024/03/13 18:54:41;;;;;;;1.92;1.73;;;;;;;10.25;100.00;98353.31;15287587;19;20032;-64
2024/03/13 19:00:07;;;;;;;1.88;1.67;;;;;;;10.21;100.00;98352.81;15292326;19;20014;-62
2024/03/13 19:05:42;;;;;;;1.58;1.48;;;;;;;10.16;100.00;98355.13;15289379;19;20024;-62
2024/03/13 19:11:08;;;;;;;1.58;1.48;;;;;;;10.11;100.00;98355.59;15297141;19;20024;-62
2024/03/13 19:16:33;;;;;;;1.73;1.50;;;;;;;10.13;100.00;98360.81;15298856;19;20007;-64
2024/03/13 19:22:00;;;;;;;1.60;1.50;;;;;;;10.11;100.00;98363.69;15289941;19;20025;-62
2024/03/13 19:27:25;;;;;;;2.25;1.98;;;;;;;10.11;100.00;98365.53;15293154;19;20074;-63
2024/03/13 19:32:50;;;;;;;1.95;1.80;;;;;;;10.10;100.00;98378.13;15293599;19;20015;-63
2024/03/13 19:38:11;;;;;;;1.92;1.73;;;;;;;10.08;100.00;98374.75;15277993;19;20029;-62
2024/03/13 19:43:36;;;;;;;3.85;1.67;;;;;;;10.04;100.00;98373.41;15292820;19;20082;-62
2024/03/13 19:49:02;;;;;;;2.22;1.80;;;;;;;10.01;100.00;98373.72;15280931;19;20383;-61
2024/03/13 19:54:30;;;;;;;1.88;1.70;;;;;;;10.00;100.00;98382.78;15284503;19;20018;-61
2024/03/13 19:59:56;;;;;;;1.75;1.30;;;;;;;9.98;100.00;98374.88;15284667;19;20014;-62
2024/03/13 20:05:22;;;;;;;1.80;1.70;;;;;;;9.94;100.00;98378.03;15292847;19;20181;-61
2024/03/13 20:10:50;;;;;;;2.03;1.50;;;;;;;9.89;100.00;98369.59;15280911;19;20034;-61
2024/03/13 20:16:14;;;;;;;1.60;1.50;;;;;;;9.86;100.00;98370.78;15293567;19;20057;-61
2024/03/13 20:21:40;;;;;;;2.75;1.80;;;;;;;9.80;100.00;98377.63;15285835;19;20073;-61
2024/03/13 20:27:07;;;;;;;2.38;1.88;;;;;;;9.81;100.00;98378.47;15282382;19;20024;-61
2024/03/13 20:32:37;;;;;;;1.77;1.42;;;;;;;9.83;100.00;98371.91;15293659;19;20011;-60
2024/03/13 20:38:03;;;;;;;1.67;1.40;;;;;;;9.85;100.00;98369.91;15294845;19;20033;-56
2024/03/13 20:43:31;;;;;;;1.55;1.40;;;;;;;9.86;100.00;98376.97;15289091;19;20015;-56
2024/03/13 20:48:56;;;;;;;1.30;1.20;;;;;;;9.90;100.00;98371.28;15288657;19;20021;-59
2024/03/13 20:54:21;;;;;;;1.70;1.60;;;;;;;9.88;100.00;98374.13;15284743;19;20467;-57
2024/03/13 20:59:48;;;;;;;1.90;1.50;;;;;;;9.89;100.00;98364.22;15292941;19;20015;-58
2024/03/13 21:05:15;;;;;;;1.70;1.50;;;;;;;9.86;100.00;98366.22;15286677;19;20523;-57
2024/03/13 21:10:41;;;;;;;1.50;1.40;;;;;;;9.84;100.00;98364.69;15293041;19;20019;-58
2024/03/13 21:16:11;;;;;;;1.75;1.60;;;;;;;9.78;100.00;98363.47;15284056;19;20090;-62
2024/03/13 21:21:36;;;;;;;1.33;1.23;;;;;;;9.75;100.00;98369.16;15292918;19;20636;-61
2024/03/13 21:27:03;;;;;;;1.67;1.58;;;;;;;9.73;100.00;98368.47;15289048;19;20025;-61
2024/03/13 21:32:30;;;;;;;1.83;1.50;;;;;;;9.72;100.00;98374.84;15286957;19;20018;-62
2024/03/13 21:37:58;;;;;;;3.33;1.60;;;;;;;9.72;100.00;98369.47;15291848;19;21123;-61
2024/03/13 21:43:22;;;;;;;1.70;1.60;;;;;;;9.69;100.00;98369.81;15302457;19;20029;-62
2024/03/13 21:48:50;;;;;;;2.05;1.63;;;;;;;9.64;100.00;98372.13;15299639;19;20685;-62
2024/03/13 21:54:15;;;;;;;2.10;1.90;;;;;;;9.60;100.00;98366.22;15294807;19;20086;-59
2024/03/13 21:59:41;;;;;;;2.00;1.80;;;;;;;9.59;100.00;98369.03;15298101;19;20017;-62
2024/03/13 22:05:09;;;;;;;3.83;1.95;;;;;;;9.57;100.00;98366.50;15294432;19;20022;-61
2024/03/13 22:10:38;;;;;;;3.83;2.00;;;;;;;9.52;100.00;98369.69;15296573;19;20078;-61
2024/03/13 22:16:03;;;;;;;3.50;1.80;;;;;;;9.49;100.00;98369.97;15290502;19;20077;-62
2024/03/13 22:21:31;;;;;;;2.25;1.73;;;;;;;9.49;100.00;98369.16;15299246;19;20018;-62
2024/03/13 22:26:56;;;;;;;3.15;1.77;;;;;;;9.52;100.00;98374.22;15293374;19;20018;-61
2024/03/13 22:32:21;;;;;;;5.80;1.90;;;;;;;9.54;100.00;98373.06;15290533;19;20374;-62
2024/03/13 22:37:48;;;;;;;4.78;1.83;;;;;;;9.54;100.00;98372.19;15294885;19;20015;-63
2024/03/13 22:43:13;;;;;;;2.58;1.90;;;;;;;9.53;100.00;98371.38;15294640;19;20085;-61
2024/03/13 22:48:37;;;;;;;3.47;1.70;;;;;;;9.54;100.00;98373.06;15296887;19;20038;-63
2024/03/13 22:54:07;;;;;;;2.03;1.63;;;;;;;9.53;100.00;98371.38;15293662;19;20018;-61
2024/03/13 22:59:31;;;;;;;3.55;1.90;;;;;;;9.53;100.00;98371.38;15296071;19;20017;-63
2024/03/13 23:04:56;;;;;;;4.65;2.05;;;;;;;9.52;100.00;98369.69;15289664;19;20427;-62
2024/03/13 23:10:23;;;;;;;3.78;2.10;;;;;;;9.50;100.00;98366.28;15296494;19;20019;-62
2024/03/13 23:15:48;;;;;;;2.63;2.00;;;;;;;9.50;100.00;98360.09;15287145;19;20014;-62
2024/03/13 23:21:14;;;;;;;3.03;2.10;;;;;;;9.47;100.00;98361.22;15295499;19;20566;-61
2024/03/13 23:26:43;;;;;;;3.45;2.33;;;;;;;9.42;100.00;98363.53;15291139;19;20014;-63
2024/03/13 23:32:07;;;;;;;3.33;2.10;;;;;;;9.41;100.00;98359.16;15292390;19;20025;-62
2024/03/13 23:37:32;;;;;;;4.68;2.40;;;;;;;9.38;100.00;98365.72;15293650;19;20037;-62
2024/03/13 23:43:00;;;;;;;2.67;2.25;;;;;;;9.36;100.00;98356.94;15293475;19;20019;-62
2024/03/13 23:48:25;;;;;;;4.05;2.17;;;;;;;9.36;100.00;98354.25;15292836;19;20014;-61
2024/03/13 23:53:49;;;;;;;3.67;2.28;;;;;;;9.34;100.00;98358.09;15294239;19;20018;-61
2024/03/13 23:59:18;;;;;;;3.03;2.47;;;;;;;9.33;100.00;98359.09;15291747;19;20085;-61
